^^
Datos históricos de la estación: Murcia-Puente Tocinos
Diario Informe para Julio 13, 2020 Unidades:  Ingés    Métrico   Ambas
Diario Semanal Mensual Anual
  Máxima: Mínima: Promedio:
Temperatura: 88.7 °F 72.7 °F 80.1 °F
Punto de rocio: 69.1 °F 60.6 °F 64.9 °F
Humedad: 83% 40.8% 62%
Velocidad viento: 11.4mph 0mph 5.6mph
Racha viento: 22.3mph - -
Viento- - ESE
Presión: 30 in 29.9 in -
Precipitación: 0.01 in    
 
 
Tabla de datos para Julio 13, 2020
Hora Temperatura Punto de rocio Presión Viento Velocidad viento Racha viento Humedad Intensidad lluvia(por hora) Nubes
00:04 75.6 °F 68.9 °F 30 in Este 3.5 mph 5 mph 80% 0 in
00:09 75.6 °F 69.1 °F 30 in NNE 2 mph 4 mph 80% 0 in
00:14 75.6 °F 69.1 °F 30 in NNO 1.9 mph 5 mph 80% 0 in
00:19 75.6 °F 69.1 °F 30 in NO 1.8 mph 2.3 mph 80% 0 in
00:24 75.6 °F 69.1 °F 30 in NO 1.4 mph   80% 0 in
00:29 75.6 °F 69.1 °F 30 in Calm     80% 0 in
00:34 75.6 °F 69.1 °F 30 in Calm     80% 0 in
00:39 75.6 °F 69.1 °F 30 in Calm   4 mph 80% 0 in
00:44 75.6 °F 69.1 °F 30 in ONO 0.4 mph 5 mph 80% 0 in
00:49 75.6 °F 69.1 °F 30 in ONO 2 mph 4.7 mph 80% 0 in
00:54 75.6 °F 69.1 °F 30 in ONO 2.2 mph 5 mph 80% 0 in
00:59 75.6 °F 69.1 °F 30 in ONO 2.9 mph 5 mph 80% 0 in
01:04 75.6 °F 69.1 °F 30 in ONO 2.7 mph 4 mph 80.1% 0 in
01:09 75.4 °F 68.9 °F 30 in ONO 2 mph 4.6 mph 80% 0 in
01:14 75.4 °F 69.1 °F 30 in ONO 1.9 mph 5 mph 80.9% 0 in
01:19 75.4 °F 68.9 °F 30 in ONO 1.8 mph 4 mph 80.6% 0 in
01:24 75.4 °F 68.9 °F 30 in ONO 1.8 mph 3.5 mph 80% 0 in
01:29 75.4 °F 69.1 °F 30 in ONO 1.8 mph 3.5 mph 80.9% 0 in
01:34 75.4 °F 68.9 °F 30 in SO 1.8 mph 5.2 mph 80% 0 in
01:39 75.4 °F 69.1 °F 30 in Sur 1.8 mph 5.9 mph 80.6% 0 in
01:44 75.2 °F 68.9 °F 30 in Sur 2.1 mph 6.9 mph 81% 0 in
01:49 74.8 °F 69.1 °F 30 in Sur 3.6 mph 7 mph 82% 0 in
01:54 74.7 °F 68.9 °F 30 in Sur 3.7 mph 7.4 mph 82% 0 in
01:59 74.5 °F 69.1 °F 30 in Sur 4.3 mph 8.1 mph 82.9% 0 in
02:04 74.5 °F 68.9 °F 30 in Sur 4.5 mph 8 mph 83% 0 in
02:09 74.3 °F 68.4 °F 30 in Sur 5.2 mph 7.4 mph 82.2% 0 in
02:14 74.1 °F 68.4 °F 30 in Sur 5.2 mph 7.4 mph 82% 0 in
02:19 74.1 °F 68.2 °F 30 in Sur 5.2 mph 8.1 mph 81.7% 0 in
02:24 73.9 °F 67.8 °F 30 in Sur 5.2 mph 8.1 mph 81% 0 in
02:29 73.9 °F 67.6 °F 30 in Sur 5.4 mph 8.1 mph 81% 0 in
02:34 73.9 °F 67.6 °F 30 in Sur 5.4 mph 8.1 mph 80.6% 0 in
02:39 74.1 °F 67.6 °F 30 in SSO 5.4 mph 8.1 mph 80% 0 in
02:44 74.1 °F 67.6 °F 30 in Sur 5.4 mph 8 mph 80% 0 in
02:49 74.1 °F 67.6 °F 30 in Sur 5.4 mph 7 mph 80% 0 in
02:54 74.1 °F 67.6 °F 30 in Sur 5.2 mph 7.4 mph 80% 0 in
02:59 74.1 °F 67.6 °F 30 in SSO 4.7 mph 7 mph 80% 0 in
03:04 74.3 °F 67.6 °F 30 in SSO 4.5 mph 7 mph 79.8% 0 in
03:09 74.3 °F 67.5 °F 30 in SSO 4 mph 6 mph 79.1% 0 in
03:14 74.3 °F 67.5 °F 30 in SSO 3.7 mph 6.2 mph 79% 0 in
03:19 74.5 °F 67.5 °F 30 in SSO 2.9 mph 7.6 mph 79% 0 in
03:24 74.5 °F 67.5 °F 30 in SO 3.1 mph 8.1 mph 79% 0 in
03:29 74.5 °F 67.3 °F 30 in SSO 4 mph 8.1 mph 78.3% 0 in
03:34 74.5 °F 67.3 °F 30 in SO 4.1 mph 8 mph 78.2% 0 in
03:39 74.5 °F 67.1 °F 30 in SO 4.3 mph 7.4 mph 78% 0 in
03:44 74.3 °F 66.9 °F 30 in SO 4.2 mph 7.4 mph 78% 0 in
03:49 74.1 °F 66.9 °F 30 in OSO 4 mph 7 mph 78% 0 in
03:54 74.1 °F 66.7 °F 30 in OSO 3.9 mph 7 mph 78% 0 in
03:59 73.9 °F 66.7 °F 30 in Oeste 3.6 mph 5.8 mph 78% 0 in
04:04 73.9 °F 66.9 °F 30 in OSO 3.4 mph 6 mph 78.8% 0 in
04:09 73.8 °F 66.7 °F 30 in OSO 2.9 mph 6 mph 79% 0 in
04:14 73.6 °F 66.7 °F 30 in OSO 2.9 mph 5.2 mph 79% 0 in
04:19 73.4 °F 66.7 °F 30 in SSO 2.9 mph 5.2 mph 79.5% 0 in
04:24 73.4 °F 66.7 °F 30 in SSO 2.9 mph 5.8 mph 79.7% 0 in
04:29 73.4 °F 66.6 °F 30 in SO 3.1 mph 6 mph 79% 0 in
04:34 73.6 °F 66.6 °F 30 in SSO 3.1 mph 6.9 mph 79% 0.01 in
04:39 73.6 °F 66.4 °F 30 in Sur 3.6 mph 6.9 mph 78.4% 0.01 in
04:44 73.6 °F 66.4 °F 30 in Sur 3.9 mph 10 mph 78.4% 0.01 in
04:49 73.2 °F 66 °F 30 in Sur 5.2 mph 10.4 mph 78.2% 0.01 in
04:54 73 °F 65.8 °F 30 in Sur 5.4 mph 10 mph 78% 0.01 in
04:59 73 °F 65.8 °F 30 in Sur 6.2 mph 9 mph 78% 0.01 in
05:04 73 °F 65.8 °F 30 in SSO 5.8 mph 8.7 mph 78.3% 0.01 in
05:09 73 °F 65.8 °F 30 in SSO 4.3 mph 9.2 mph 78% 0.01 in
05:14 72.9 °F 65.3 °F 30 in SSO 4.5 mph 9.2 mph 77.4% 0.01 in
05:19 72.9 °F 65.1 °F 30 in SSO 5.4 mph 8.1 mph 77% 0.01 in
05:24 73 °F 65.3 °F 30 in SSO 5 mph 7 mph 76.8% 0.01 in
05:29 73 °F 64.9 °F 30 in SSO 4 mph 7.4 mph 76% 0.01 in
05:34 73 °F 64.8 °F 30 in SSO 4 mph 7 mph 75.3% 0.01 in
05:39 73 °F 64.6 °F 30 in SSO 4 mph 7 mph 75% 0 in
05:44 73 °F 64.6 °F 30 in SSO 3.8 mph 5.8 mph 75% 0 in
05:49 73 °F 64.8 °F 30 in SSO 3.1 mph 6 mph 75% 0 in
05:54 73.2 °F 64.8 °F 30 in Sur 3.2 mph 6.2 mph 75% 0 in
05:59 73.2 °F 64.8 °F 30 in SO 3.6 mph 6 mph 75% 0 in
06:04 73 °F 64.8 °F 30 in SSO 3.4 mph 5.2 mph 75% 0 in
06:09 73 °F 64.6 °F 30 in Sur 2.9 mph 6.2 mph 75% 0 in
06:14 73 °F 64.6 °F 30 in Sur 3.2 mph 6.9 mph 75% 0 in
06:19 73 °F 64.4 °F 30 in Sur 4.3 mph 7 mph 74.4% 0 in
06:24 73 °F 64.2 °F 30 in Sur 4.3 mph 7 mph 74% 0 in
06:29 73 °F 64.4 °F 30 in Sur 4.3 mph 6 mph 74.2% 0 in
06:34 73 °F 64.6 °F 30 in SSE 4 mph 5.9 mph 75% 0 in
06:39 72.9 °F 64.8 °F 30 in Sur 3.1 mph 6.4 mph 75.5% 0 in
06:44 72.9 °F 64.8 °F 30 in SSO 3.3 mph 7 mph 75.8% 0 in
06:49 72.9 °F 64.4 °F 30 in SSO 4 mph 6 mph 75% 0 in
06:54 72.9 °F 64.4 °F 30 in SO 3.8 mph 6 mph 75% 0 in
06:59 72.7 °F 64.4 °F 30 in SSO 3.1 mph 6 mph 75% 0 in
07:04 72.7 °F 63.9 °F 30 in SSO 3 mph 6.2 mph 74.1% 0 in
07:09 72.7 °F 64 °F 30 in Sur 2.9 mph 6.2 mph 74.2% 0 in
07:14 72.7 °F 63.9 °F 30 in Sur 3.4 mph 7.4 mph 74.1% 0 in
07:19 72.7 °F 63.9 °F 30 in Sur 4.7 mph 7 mph 74% 0 in
07:24 72.7 °F 64.2 °F 30 in SSE 4.6 mph 7.6 mph 74.8% 0 in
07:29 72.7 °F 64.4 °F 30 in Sur 4.3 mph 8.1 mph 75% 0 in
07:34 72.9 °F 64.2 °F 30 in SSO 4.3 mph 6.9 mph 74.5% 0 in
07:39 72.9 °F 64 °F 30 in SSO 4.3 mph 7 mph 74% 0 in
07:44 72.9 °F 64.2 °F 30 in SSO 4.2 mph 7 mph 74% 0 in
07:49 73 °F 64 °F 30 in SSO 4 mph 7 mph 73.2% 0 in
07:54 73.2 °F 63.9 °F 30 in SSO 4 mph 6.9 mph 72.9% 0 in
07:59 73.4 °F 63.9 °F 30 in SSO 4 mph 7 mph 72% 0 in
08:04 73.6 °F 64 °F 30 in Sur 4.2 mph 8.5 mph 72% 0 in
08:09 73.8 °F 64.2 °F 30 in SSO 4.7 mph 9 mph 71.8% 0 in
08:14 73.9 °F 64 °F 30 in SSO 4.8 mph 9 mph 71% 0 in
08:19 74.3 °F 64.4 °F 30 in SO 5.2 mph 8.1 mph 71.6% 0 in
08:24 74.5 °F 65.1 °F 30 in SSO 5.2 mph 9.2 mph 72.4% 0 in
08:29 74.5 °F 64.8 °F 30 in SSO 5.4 mph 9.7 mph 71.8% 0 in
08:34 74.5 °F 64.4 °F 30 in SSO 5.3 mph 10 mph 70.7% 0 in
08:39 74.7 °F 64.2 °F 30 in SSO 5.2 mph 7.4 mph 70% 0 in
08:44 74.7 °F 64.2 °F 30 in SSO 5.2 mph 9.2 mph 70% 0 in
08:49 74.8 °F 64.4 °F 30 in SSO 5.2 mph 9 mph 69.8% 0 in
08:54 75 °F 64.2 °F 30 in SSO 5 mph 8.5 mph 69% 0 in
08:59 75.2 °F 64.4 °F 30 in SO 4.3 mph 9 mph 69% 0 in
09:04 75.6 °F 64.4 °F 30 in SSO 4.2 mph 7.4 mph 68.5% 0 in
09:09 75.9 °F 64.4 °F 30 in Sur 4 mph 7.6 mph 67.5% 0 in
09:14 76.3 °F 64.4 °F 30 in Sur 4.1 mph 8 mph 66.9% 0 in
09:19 76.5 °F 63.9 °F 30 in SSO 4.3 mph 7.4 mph 65.2% 0 in
09:24 76.6 °F 63.9 °F 30 in Sur 4.2 mph 7.4 mph 64.9% 0 in
09:29 76.8 °F 63.9 °F 30 in SSO 4 mph 7 mph 64.3% 0 in
09:34 77.2 °F 63.7 °F 30 in SO 3.9 mph 8.1 mph 63.1% 0 in
09:39 77.4 °F 63.7 °F 30 in OSO 3.6 mph 8 mph 62.8% 0 in
09:44 77.5 °F 63.7 °F 30 in Oeste 3.5 mph 7.4 mph 62.2% 0 in
09:49 77.7 °F 63.7 °F 30 in Oeste 3.1 mph 7 mph 62% 0 in
09:54 77.7 °F 63.9 °F 30 in Oeste 3.2 mph 6 mph 62.4% 0 in
09:59 78.1 °F 63.9 °F 30 in Oeste 3.6 mph 6 mph 61.8% 0 in
10:04 78.4 °F 63.9 °F 30 in SSO 3.3 mph 5.9 mph 61% 0 in
10:09 78.8 °F 63.9 °F 30 in ONO 2.4 mph 6 mph 60.5% 0 in
10:14 79.2 °F 64 °F 30 in NNO 2.4 mph 6 mph 60% 0 in
10:19 79.9 °F 64.6 °F 30 in NE 2.4 mph 5 mph 59.6% 0 in
10:24 80.6 °F 64.4 °F 30 in NE 2.3 mph 5 mph 57.7% 0 in
10:29 81.1 °F 64.2 °F 30 in NNE 2 mph 5 mph 56.3% 0 in
10:34 81.5 °F 63.9 °F 30 in Oeste 2 mph 5 mph 55.1% 0 in
10:39 81.7 °F 64.2 °F 30 in NNO 2 mph 5 mph 55.7% 0 in
10:44 82 °F 64.4 °F 30 in NNE 2.1 mph 5 mph 55.1% 0 in
10:49 82.4 °F 63.9 °F 30 in NNE 2.4 mph 6.9 mph 53.9% 0 in
10:54 82.6 °F 63.5 °F 30 in North 2.5 mph 7 mph 52.7% 0 in
10:59 82.8 °F 63.3 °F 30 in NE 3.1 mph 8.1 mph 52.1% 0 in
11:04 82.6 °F 63.5 °F 30 in NE 3.5 mph 9.2 mph 52.9% 0 in
11:09 82.6 °F 63.7 °F 30 in NE 4.7 mph 9 mph 53% 0 in
11:14 82.6 °F 63.9 °F 30 in ENE 4.7 mph 9.2 mph 53.1% 0 in
11:19 82.6 °F 63.7 °F 30 in Este 4.7 mph 10 mph 53% 0 in
11:24 82.8 °F 63.9 °F 30 in NE 4.8 mph 10.4 mph 53.2% 0 in
11:29 82.8 °F 63.9 °F 30 in ENE 5.2 mph 9.2 mph 53% 0 in
11:34 82.9 °F 63.9 °F 30 in NE 5.2 mph 9.7 mph 52.9% 0 in
11:39 83.1 °F 63.9 °F 30 in NE 5.4 mph 10 mph 52.5% 0 in
11:44 83.1 °F 64 °F 30 in ENE 5.4 mph 10.7 mph 52.8% 0 in
11:49 83.3 °F 64.2 °F 30 in ENE 5.4 mph 11 mph 52.7% 0 in
11:54 83.7 °F 64.4 °F 30 in NE 5.4 mph 13.8 mph 52.2% 0 in
11:59 83.7 °F 64.2 °F 30 in NE 5.4 mph 14 mph 52% 0 in
12:04 83.7 °F 64 °F 30 in NE 5.8 mph 14 mph 51.5% 0 in
12:09 83.8 °F 64 °F 30 in NE 6.9 mph 15 mph 51.4% 0 in
12:14 83.8 °F 63.5 °F 30 in NE 7.1 mph 15 mph 50.4% 0 in
12:19 84 °F 63.5 °F 30 in ENE 7.6 mph 17.3 mph 50.1% 0 in
12:24 84.6 °F 63.5 °F 30 in ENE 7.5 mph 17 mph 49.4% 0 in
12:29 84.7 °F 63.1 °F 30 in NE 6.9 mph 12 mph 48.2% 0 in
12:34 85.3 °F 63 °F 30 in ENE 6.8 mph 13.8 mph 47.5% 0 in
12:39 85.3 °F 62.6 °F 30 in NNE 6.4 mph 17 mph 46.8% 0 in
12:44 85.3 °F 63 °F 30 in NE 6.8 mph 17.3 mph 47.2% 0 in
12:49 85.6 °F 64 °F 30 in NE 8.1 mph 14 mph 48.6% 0 in
12:54 85.6 °F 62.6 °F 30 in NNE 7.8 mph 12.7 mph 46% 0 in
12:59 85.6 °F 63.1 °F 30 in North 6.9 mph 13 mph 47% 0 in
13:04 86 °F 64 °F 30 in ENE 6.6 mph 12.5 mph 48.1% 0 in
13:09 86.2 °F 63.3 °F 30 in NNE 5.9 mph 13.5 mph 46.6% 0 in
13:14 86.4 °F 63.5 °F 30 in ENE 6 mph 13 mph 46.4% 0 in
13:19 86.7 °F 63.1 °F 30 in NE 6.2 mph 13.8 mph 45.4% 0 in
13:24 87.1 °F 63.3 °F 30 in ENE 6.2 mph 14 mph 45.3% 0 in
13:29 87.4 °F 63.7 °F 30 in NE 6.2 mph 12 mph 45.3% 0 in
13:34 87.4 °F 64 °F 30 in ENE 6 mph 12 mph 46% 0 in
13:39 87.6 °F 64.2 °F 30 in NE 5.2 mph 12.7 mph 46% 0 in
13:44 87.8 °F 64.6 °F 30 in ENE 5.9 mph 17.3 mph 46% 0 in
13:49 88.2 °F 64.6 °F 30 in ENE 8.1 mph 17 mph 46% 0 in
13:54 88.5 °F 64 °F 30 in NE 8 mph 14.7 mph 44.3% 0 in
13:59 88.3 °F 63.5 °F 30 in NE 7.4 mph 15 mph 43.5% 0 in
14:04 88.3 °F 63.3 °F 30 in NE 7.5 mph 16.8 mph 43.4% 0 in
14:09 88.2 °F 63 °F 30 in NE 7.6 mph 17.3 mph 43.1% 0 in
14:14 88.2 °F 62.8 °F 30 in NE 7.8 mph 16 mph 43% 0 in
14:19 88.5 °F 62.6 °F 30 in NE 8.7 mph 17.3 mph 42% 0 in
14:24 88.7 °F 62.4 °F 30 in NE 8.4 mph 17 mph 41.6% 0 in
14:29 88.3 °F 62.8 °F 30 in NE 7.6 mph 19 mph 42.7% 0 in
14:34 88.2 °F 62.6 °F 30 in NE 8 mph 19 mph 42.7% 0 in
14:39 87.8 °F 62.4 °F 30 in NE 9.2 mph 16.1 mph 43% 0 in
14:44 88 °F 62.6 °F 30 in ENE 9.2 mph 16.3 mph 42.9% 0 in
14:49 88 °F 62.4 °F 30 in NE 9.2 mph 16.1 mph 42.4% 0 in
14:54 88.2 °F 61.9 °F 30 in ENE 8.8 mph 14 mph 41.3% 0 in
14:59 88.3 °F 61.5 °F 30 in ENE 7.6 mph 15 mph 40.8% 0 in
15:04 88.3 °F 61.5 °F 30 in NE 8 mph 16.3 mph 40.9% 0 in
15:09 88.2 °F 61.5 °F 30 in NE 9.2 mph 16.1 mph 41% 0 in
15:14 88.3 °F 61.7 °F 30 in ENE 8.8 mph 16 mph 41% 0 in
15:19 88.2 °F 61.7 °F 30 in NE 7.6 mph 16.3 mph 41.1% 0 in
15:24 88.2 °F 61.7 °F 30 in NE 7.8 mph 20.7 mph 41.5% 0 in
15:29 88 °F 62.2 °F 30 in ENE 8.7 mph 21 mph 42.3% 0 in
15:34 88 °F 62.6 °F 30 in NE 8.6 mph 17.3 mph 43% 0 in
15:39 88 °F 62.6 °F 30 in NE 8.5 mph 17 mph 43% 0 in
15:44 88.2 °F 62.6 °F 30 in NE 8.3 mph 16 mph 42.7% 0 in
15:49 88 °F 62.2 °F 30 in NE 7.6 mph 17.8 mph 42.5% 0 in
15:54 87.4 °F 62.2 °F 30 in ENE 8.4 mph 22.3 mph 43% 0 in
15:59 87.4 °F 62.2 °F 30 in ENE 11.2 mph 22 mph 43% 0 in
16:04 87.4 °F 62.2 °F 30 in NE 10.9 mph 20.7 mph 43% 0 in
16:09 87.3 °F 62.1 °F 30 in NE 10.2 mph 21 mph 43% 0 in
16:14 87.3 °F 62.1 °F 30 in NE 10.2 mph 20.4 mph 43% 0 in
16:19 86.9 °F 61.9 °F 30 in NNE 10.2 mph 21.9 mph 43.3% 0 in
16:24 87.1 °F 62.2 °F 30 in NE 10.2 mph 22 mph 43.6% 0 in
16:29 87.3 °F 62.4 °F 30 in NE 10.2 mph 20 mph 43.7% 0 in
16:34 87.4 °F 62.6 °F 30 in NE 10 mph 17.3 mph 43.7% 0 in
16:39 87.3 °F 62.1 °F 30 in NE 9.2 mph 19 mph 43.2% 0 in
16:44 86.9 °F 62.1 °F 30 in NNE 9.6 mph 19.2 mph 43.5% 0 in
16:49 86.7 °F 61.7 °F 30 in NE 10.7 mph 19 mph 43.3% 0 in
16:54 86.7 °F 61.5 °F 30 in NE 10.9 mph 22.3 mph 43.1% 0 in
16:59 86.5 °F 61.9 °F 30 in ENE 11.4 mph 22 mph 43.7% 0 in
17:04 86.7 °F 62.1 °F 30 in ENE 10.8 mph 18 mph 43.9% 0 in
17:09 86.9 °F 61.7 °F 30 in NE 9.2 mph 21.3 mph 43% 0 in
17:14 86.7 °F 61.5 °F 30 in NE 9.4 mph 21 mph 43% 0 in
17:19 86.7 °F 61.5 °F 30 in NE 10.2 mph 21.5 mph 43% 0 in
17:24 86.5 °F 61.2 °F 30 in NNE 10.4 mph 22 mph 42.6% 0 in
17:29 86.5 °F 61.9 °F 30 in NE 11.2 mph 22 mph 43.8% 0 in
17:34 87.1 °F 62.1 °F 30 in NNE 10.7 mph 17 mph 43.2% 0 in
17:39 87.1 °F 61.7 °F 30 in NNE 8.7 mph 17.5 mph 42.8% 0 in
17:44 86.9 °F 60.6 °F 30 in NNE 9.1 mph 18.5 mph 41.3% 0 in
17:49 86.7 °F 61.3 °F 30 in NE 10.2 mph 19 mph 42.8% 0 in
17:54 86.7 °F 61.3 °F 30 in NE 10.1 mph 18.5 mph 42.6% 0 in
17:59 86.7 °F 62.1 °F 29.9 in NNE 9.7 mph 20.7 mph 43.8% 0 in
18:04 86.5 °F 62.1 °F 29.9 in NE 9.8 mph 21 mph 44% 0 in
18:09 86.5 °F 62.1 °F 29.9 in NE 10.2 mph 18.5 mph 44.2% 0 in
18:14 86.7 °F 61.7 °F 29.9 in ENE 10 mph 18.5 mph 43.4% 0 in
18:19 86.5 °F 61.9 °F 29.9 in NE 9.2 mph 19 mph 43.7% 0 in
18:24 86.5 °F 62.4 °F 29.9 in NE 9.1 mph 16.8 mph 44.6% 0 in
18:29 86.7 °F 62.6 °F 29.9 in NE 8.7 mph 19.2 mph 44.7% 0 in
18:34 86.5 °F 62.6 °F 29.9 in NNE 9.2 mph 20 mph 45% 0 in
18:39 86.4 °F 62.8 °F 29.9 in NE 10.7 mph 20 mph 45.4% 0 in
18:44 86.5 °F 63.1 °F 29.9 in NE 10.3 mph 17 mph 45.8% 0 in
18:49 86.5 °F 62.8 °F 29.9 in NE 9.2 mph 16 mph 45.2% 0 in
18:54 86.5 °F 63 °F 29.9 in NNE 8.9 mph 16.1 mph 45.7% 0 in
18:59 86.4 °F 63.1 °F 29.9 in NE 8.1 mph 16.1 mph 46% 0 in
19:04 86.2 °F 63.3 °F 29.9 in NE 8.4 mph 16 mph 46.5% 0 in
19:09 85.8 °F 63.1 °F 29.9 in NE 9.2 mph 15 mph 46.5% 0 in
19:14 85.8 °F 63.3 °F 29.9 in NNE 8.8 mph 14 mph 47% 0 in
19:19 85.6 °F 63.5 °F 29.9 in NE 7.6 mph 16.3 mph 47.6% 0 in
19:24 85.5 °F 63.5 °F 29.9 in NE 7.8 mph 16 mph 48% 0 in
19:29 85.5 °F 63.5 °F 29.9 in NE 8.7 mph 15.6 mph 47.9% 0 in
19:34 85.3 °F 63.7 °F 29.9 in NE 8.4 mph 16.1 mph 48.5% 0 in
19:39 85.3 °F 64 °F 29.9 in NE 7.6 mph 14 mph 49% 0 in
19:44 85.3 °F 64 °F 29.9 in NE 7.6 mph 15 mph 49% 0 in
19:49 84.9 °F 64.2 °F 29.9 in NE 7.6 mph 16.1 mph 49.8% 0 in
19:54 84.7 °F 64 °F 29.9 in NNE 8.1 mph 17.5 mph 50.2% 0 in
19:59 84.2 °F 64.4 °F 29.9 in NE 9.7 mph 17 mph 51.3% 0 in
20:04 84.2 °F 64.9 °F 29.9 in NE 9.4 mph 15 mph 52.6% 0 in
20:09 84 °F 65.1 °F 30 in NE 8.7 mph 15.2 mph 53% 0 in
20:14 83.8 °F 65.3 °F 30 in NE 8.7 mph 16.1 mph 53.9% 0 in
20:19 83.7 °F 65.1 °F 30 in NE 8.7 mph 17.3 mph 54% 0 in
20:24 83.5 °F 65.7 °F 30 in NE 8.6 mph 17 mph 55.2% 0 in
20:29 82.9 °F 65.8 °F 30 in NE 8.1 mph 13.8 mph 56.6% 0 in
20:34 82.9 °F 66.2 °F 30 in NE 8 mph 15 mph 57% 0 in
20:39 82.8 °F 65.8 °F 30 in NE 7.4 mph 13.8 mph 57% 0 in
20:44 82.4 °F 65.7 °F 30 in NE 7.4 mph 14 mph 56.9% 0 in
20:49 82.2 °F 65.5 °F 30 in NE 7.4 mph 13 mph 57% 0 in
20:54 82 °F 65.7 °F 30 in NE 7.1 mph 12 mph 57.3% 0 in
20:59 82 °F 66 °F 30 in NE 6.4 mph 9.7 mph 58.3% 0 in
21:04 81.9 °F 66.4 °F 30 in NE 6.2 mph 10 mph 59.4% 0 in
21:09 81.9 °F 66.6 °F 30 in NE 5.4 mph 9 mph 60% 0 in
21:14 81.5 °F 66.4 °F 30 in NE 5.2 mph 8.1 mph 60% 0 in
21:19 81.1 °F 65.7 °F 30 in NE 4.7 mph 12.7 mph 59.3% 0 in
21:24 81 °F 65.3 °F 30 in NE 5 mph 13 mph 59% 0 in
21:29 80.8 °F 65.5 °F 30 in NE 5.9 mph 12 mph 59.8% 0 in
21:34 80.4 °F 65.7 °F 30 in NE 5.6 mph 9 mph 60.6% 0 in
21:39 80.4 °F 66 °F 30 in NE 4.7 mph 9 mph 61.7% 0 in
21:44 80.2 °F 66.2 °F 30 in ENE 4.5 mph 8.5 mph 62.5% 0 in
21:49 80.1 °F 66.6 °F 30 in ENE 4 mph 9 mph 63.4% 0 in
21:54 79.9 °F 66.6 °F 30 in NE 4.1 mph 8 mph 64% 0 in
21:59 79.7 °F 66.9 °F 30 in NE 4.3 mph 6.2 mph 65% 0 in
22:04 79.5 °F 67.1 °F 30 in NE 4.2 mph 8.1 mph 65.6% 0 in
22:09 79.3 °F 67.3 °F 30 in NNE 4 mph 8 mph 66.6% 0 in
22:14 79.3 °F 67.6 °F 30 in NNE 4 mph 6.9 mph 67.5% 0 in
22:19 79.2 °F 67.8 °F 30 in NE 4 mph 8.5 mph 68.2% 0 in
22:24 79 °F 67.8 °F 30 in NNE 4.2 mph 9 mph 69% 0 in
22:29 78.8 °F 67.8 °F 30 in NE 4.7 mph 8.1 mph 69% 0 in
22:34 78.6 °F 67.6 °F 30 in NE 4.6 mph 8 mph 69% 0 in
22:39 78.6 °F 67.8 °F 30 in NE 4.3 mph 7 mph 69.6% 0 in
22:44 78.4 °F 67.8 °F 30 in NE 4.2 mph 7 mph 70% 0 in
22:49 78.4 °F 67.8 °F 30 in NE 4 mph 7 mph 70% 0 in
22:54 78.3 °F 67.8 °F 30 in NE 4 mph 7 mph 70.2% 0 in
22:59 78.3 °F 68.2 °F 30 in NNE 3.6 mph 7 mph 71% 0 in
23:04 78.3 °F 68 °F 30 in NNE 3.7 mph 8.1 mph 71% 0 in
23:09 78.1 °F 67.8 °F 30 in NE 4 mph 6.2 mph 71% 0 in
23:14 78.1 °F 67.8 °F 30 in NE 4 mph 6.2 mph 71% 0 in
23:23 77.7 °F 68 °F 30 in NE 4 mph 5.8 mph 72% 0 in
23:29 77.7 °F 68 °F 30 in NNE 3.5 mph 6 mph 72% 0 in
23:33 77.7 °F 68 °F 30 in NNE 3.6 mph 5 mph 72% 0 in
23:38 77.7 °F 68 °F 30 in NNE 3.1 mph 4.6 mph 72% 0 in
23:44 77.7 °F 68 °F 30 in NNE 3 mph 5 mph 72% 0 in
23:49 77.5 °F 67.8 °F 30 in NE 2.9 mph 6.2 mph 72% 0 in
23:54 77.5 °F 67.8 °F 30 in NNE 3 mph 5.8 mph 72% 0 in
23:59 77.5 °F 67.8 °F 30 in NE 3.6 mph 5.8 mph 72% 0 in
Murcia-Puente Tocinos, España
Compliments of Weather Underground - 3 mb

La estación de MeteoMurcia.com, publica sus datos en los siguientes proyectos:

Weather Underground PWS IMURCIAP2 Meteoclimatic www.awekas.at

W3Counter
Web Analytics